sensor_id;sensor_type;location;lat;lon;timestamp;pressure;altitude;pressure_sealevel;temperature
34807;BMP180;18310;55.586;12.286;2022-07-29T00:00:01;102193.00;;;21.60
34807;BMP180;18310;55.586;12.286;2022-07-29T00:03:04;102194.00;;;21.60
34807;BMP180;18310;55.586;12.286;2022-07-29T00:06:09;102190.00;;;21.60
34807;BMP180;18310;55.586;12.286;2022-07-29T00:09:13;102188.00;;;21.50
34807;BMP180;18310;55.586;12.286;2022-07-29T00:12:17;102192.00;;;21.50
34807;BMP180;18310;55.586;12.286;2022-07-29T00:15:27;102189.00;;;21.50
34807;BMP180;18310;55.586;12.286;2022-07-29T00:18:30;102197.00;;;21.50
34807;BMP180;18310;55.586;12.286;2022-07-29T00:21:35;102194.00;;;21.50
34807;BMP180;18310;55.586;12.286;2022-07-29T00:24:38;102187.00;;;21.40
34807;BMP180;18310;55.586;12.286;2022-07-29T00:27:41;102190.00;;;21.40
34807;BMP180;18310;55.586;12.286;2022-07-29T00:30:44;102190.00;;;21.40
34807;BMP180;18310;55.586;12.286;2022-07-29T00:33:48;102183.00;;;21.30
34807;BMP180;18310;55.586;12.286;2022-07-29T00:36:52;102190.00;;;21.30
34807;BMP180;18310;55.586;12.286;2022-07-29T00:39:54;102191.00;;;21.30
34807;BMP180;18310;55.586;12.286;2022-07-29T00:43:00;102188.00;;;21.30
34807;BMP180;18310;55.586;12.286;2022-07-29T00:46:03;102187.00;;;21.30
34807;BMP180;18310;55.586;12.286;2022-07-29T00:49:07;102191.00;;;21.20
34807;BMP180;18310;55.586;12.286;2022-07-29T00:52:12;102190.00;;;21.20
34807;BMP180;18310;55.586;12.286;2022-07-29T00:55:18;102196.00;;;21.20
34807;BMP180;18310;55.586;12.286;2022-07-29T00:58:22;102193.00;;;21.20
34807;BMP180;18310;55.586;12.286;2022-07-29T01:01:26;102190.00;;;21.20
34807;BMP180;18310;55.586;12.286;2022-07-29T01:04:31;102190.00;;;21.10
34807;BMP180;18310;55.586;12.286;2022-07-29T01:07:37;102188.00;;;21.00
34807;BMP180;18310;55.586;12.286;2022-07-29T01:10:41;102191.00;;;21.00
34807;BMP180;18310;55.586;12.286;2022-07-29T01:13:48;102190.00;;;21.00
34807;BMP180;18310;55.586;12.286;2022-07-29T01:17:00;102205.00;;;21.00
34807;BMP180;18310;55.586;12.286;2022-07-29T01:20:13;102200.00;;;21.00
34807;BMP180;18310;55.586;12.286;2022-07-29T01:23:59;102196.00;;;20.90
34807;BMP180;18310;55.586;12.286;2022-07-29T01:27:29;102184.00;;;20.90
34807;BMP180;18310;55.586;12.286;2022-07-29T01:30:40;102193.00;;;20.80
34807;BMP180;18310;55.586;12.286;2022-07-29T01:33:51;102184.00;;;20.80
34807;BMP180;18310;55.586;12.286;2022-07-29T01:37:05;102191.00;;;20.70
34807;BMP180;18310;55.586;12.286;2022-07-29T01:40:20;102188.00;;;20.70
34807;BMP180;18310;55.586;12.286;2022-07-29T01:43:31;102185.00;;;20.70
34807;BMP180;18310;55.586;12.286;2022-07-29T01:46:42;102185.00;;;20.60
34807;BMP180;18310;55.586;12.286;2022-07-29T01:49:51;102188.00;;;20.60
34807;BMP180;18310;55.586;12.286;2022-07-29T01:53:00;102189.00;;;20.60
34807;BMP180;18310;55.586;12.286;2022-07-29T01:56:08;102191.00;;;20.50
34807;BMP180;18310;55.586;12.286;2022-07-29T01:59:13;102193.00;;;20.50
34807;BMP180;18310;55.586;12.286;2022-07-29T02:02:21;102190.00;;;20.50
34807;BMP180;18310;55.586;12.286;2022-07-29T02:05:28;102198.00;;;20.50
34807;BMP180;18310;55.586;12.286;2022-07-29T02:08:33;102185.00;;;20.40
34807;BMP180;18310;55.586;12.286;2022-07-29T02:11:39;102190.00;;;20.40
34807;BMP180;18310;55.586;12.286;2022-07-29T02:14:48;102185.00;;;20.40
34807;BMP180;18310;55.586;12.286;2022-07-29T02:17:58;102190.00;;;20.40
34807;BMP180;18310;55.586;12.286;2022-07-29T02:21:04;102181.00;;;20.30
34807;BMP180;18310;55.586;12.286;2022-07-29T02:24:17;102191.00;;;20.30
34807;BMP180;18310;55.586;12.286;2022-07-29T02:27:23;102189.00;;;20.40
34807;BMP180;18310;55.586;12.286;2022-07-29T02:30:30;102181.00;;;20.30
34807;BMP180;18310;55.586;12.286;2022-07-29T02:33:37;102186.00;;;20.30
34807;BMP180;18310;55.586;12.286;2022-07-29T02:36:42;102187.00;;;20.30
34807;BMP180;18310;55.586;12.286;2022-07-29T02:39:53;102186.00;;;20.30
34807;BMP180;18310;55.586;12.286;2022-07-29T02:42:58;102179.00;;;20.30
34807;BMP180;18310;55.586;12.286;2022-07-29T02:46:02;102186.00;;;20.30
34807;BMP180;18310;55.586;12.286;2022-07-29T02:49:37;102186.00;;;20.20
34807;BMP180;18310;55.586;12.286;2022-07-29T02:52:45;102188.00;;;20.20
34807;BMP180;18310;55.586;12.286;2022-07-29T02:55:56;102188.00;;;20.20
34807;BMP180;18310;55.586;12.286;2022-07-29T02:59:05;102187.00;;;20.20
34807;BMP180;18310;55.586;12.286;2022-07-29T03:02:11;102189.00;;;20.20
34807;BMP180;18310;55.586;12.286;2022-07-29T03:05:20;102190.00;;;20.10
34807;BMP180;18310;55.586;12.286;2022-07-29T03:08:24;102187.00;;;20.10
34807;BMP180;18310;55.586;12.286;2022-07-29T03:11:30;102185.00;;;20.10
34807;BMP180;18310;55.586;12.286;2022-07-29T03:14:52;102178.00;;;20.10
34807;BMP180;18310;55.586;12.286;2022-07-29T03:17:56;102183.00;;;20.00
34807;BMP180;18310;55.586;12.286;2022-07-29T03:21:02;102189.00;;;20.00
34807;BMP180;18310;55.586;12.286;2022-07-29T03:24:06;102185.00;;;20.00
34807;BMP180;18310;55.586;12.286;2022-07-29T03:27:12;102183.00;;;19.90
34807;BMP180;18310;55.586;12.286;2022-07-29T03:30:15;102195.00;;;19.90
34807;BMP180;18310;55.586;12.286;2022-07-29T03:33:23;102187.00;;;20.00
34807;BMP180;18310;55.586;12.286;2022-07-29T03:36:28;102183.00;;;20.00
34807;BMP180;18310;55.586;12.286;2022-07-29T03:39:38;102180.00;;;20.10
34807;BMP180;18310;55.586;12.286;2022-07-29T03:42:44;102186.00;;;20.10
34807;BMP180;18310;55.586;12.286;2022-07-29T03:45:52;102193.00;;;20.20
34807;BMP180;18310;55.586;12.286;2022-07-29T03:49:00;102184.00;;;20.20
34807;BMP180;18310;55.586;12.286;2022-07-29T03:52:08;102187.00;;;20.20
34807;BMP180;18310;55.586;12.286;2022-07-29T03:55:12;102191.00;;;20.20
34807;BMP180;18310;55.586;12.286;2022-07-29T03:58:18;102194.00;;;20.30
34807;BMP180;18310;55.586;12.286;2022-07-29T04:01:23;102184.00;;;20.30
34807;BMP180;18310;55.586;12.286;2022-07-29T04:04:27;102189.00;;;20.30
34807;BMP180;18310;55.586;12.286;2022-07-29T04:07:32;102187.00;;;20.40
34807;BMP180;18310;55.586;12.286;2022-07-29T04:10:35;102182.00;;;20.40
34807;BMP180;18310;55.586;12.286;2022-07-29T04:13:40;102188.00;;;20.50
34807;BMP180;18310;55.586;12.286;2022-07-29T04:16:44;102193.00;;;20.50
34807;BMP180;18310;55.586;12.286;2022-07-29T04:19:47;102187.00;;;20.60
34807;BMP180;18310;55.586;12.286;2022-07-29T04:22:51;102183.00;;;20.70
34807;BMP180;18310;55.586;12.286;2022-07-29T04:25:54;102191.00;;;20.80
34807;BMP180;18310;55.586;12.286;2022-07-29T04:28:58;102190.00;;;20.90
34807;BMP180;18310;55.586;12.286;2022-07-29T04:32:01;102185.00;;;21.00
34807;BMP180;18310;55.586;12.286;2022-07-29T04:35:05;102175.00;;;21.30
34807;BMP180;18310;55.586;12.286;2022-07-29T04:38:10;102179.00;;;22.00
34807;BMP180;18310;55.586;12.286;2022-07-29T04:41:18;102180.00;;;22.70
34807;BMP180;18310;55.586;12.286;2022-07-29T04:44:22;102185.00;;;23.60
34807;BMP180;18310;55.586;12.286;2022-07-29T04:47:29;102190.00;;;24.50
34807;BMP180;18310;55.586;12.286;2022-07-29T04:50:33;102189.00;;;25.40
34807;BMP180;18310;55.586;12.286;2022-07-29T04:53:37;102193.00;;;26.30
34807;BMP180;18310;55.586;12.286;2022-07-29T04:56:41;102192.00;;;27.20
34807;BMP180;18310;55.586;12.286;2022-07-29T04:59:44;102202.00;;;28.10
34807;BMP180;18310;55.586;12.286;2022-07-29T05:02:47;102201.00;;;28.80
34807;BMP180;18310;55.586;12.286;2022-07-29T05:05:50;102206.00;;;29.50
34807;BMP180;18310;55.586;12.286;2022-07-29T05:08:55;102210.00;;;30.30
34807;BMP180;18310;55.586;12.286;2022-07-29T05:11:58;102209.00;;;30.90
34807;BMP180;18310;55.586;12.286;2022-07-29T05:15:02;102212.00;;;31.50
34807;BMP180;18310;55.586;12.286;2022-07-29T05:18:05;102204.00;;;32.00
34807;BMP180;18310;55.586;12.286;2022-07-29T05:21:10;102203.00;;;32.40
34807;BMP180;18310;55.586;12.286;2022-07-29T05:24:15;102210.00;;;32.90
34807;BMP180;18310;55.586;12.286;2022-07-29T05:27:20;102211.00;;;33.40
34807;BMP180;18310;55.586;12.286;2022-07-29T05:30:23;102210.00;;;33.70
34807;BMP180;18310;55.586;12.286;2022-07-29T05:33:26;102207.00;;;33.90
34807;BMP180;18310;55.586;12.286;2022-07-29T05:36:37;102206.00;;;34.20
34807;BMP180;18310;55.586;12.286;2022-07-29T05:39:42;102205.00;;;34.50
34807;BMP180;18310;55.586;12.286;2022-07-29T05:42:51;102206.00;;;34.60
34807;BMP180;18310;55.586;12.286;2022-07-29T05:45:55;102215.00;;;34.80
34807;BMP180;18310;55.586;12.286;2022-07-29T05:48:58;102208.00;;;34.90
34807;BMP180;18310;55.586;12.286;2022-07-29T05:52:01;102209.00;;;34.90
34807;BMP180;18310;55.586;12.286;2022-07-29T05:55:07;102211.00;;;34.80
34807;BMP180;18310;55.586;12.286;2022-07-29T05:58:10;102210.00;;;34.70
34807;BMP180;18310;55.586;12.286;2022-07-29T06:01:14;102212.00;;;34.60
34807;BMP180;18310;55.586;12.286;2022-07-29T06:04:18;102210.00;;;34.70
34807;BMP180;18310;55.586;12.286;2022-07-29T06:07:21;102212.00;;;35.00
34807;BMP180;18310;55.586;12.286;2022-07-29T06:10:26;102212.00;;;35.00
34807;BMP180;18310;55.586;12.286;2022-07-29T06:13:30;102218.00;;;35.10
34807;BMP180;18310;55.586;12.286;2022-07-29T06:16:35;102228.00;;;35.40
34807;BMP180;18310;55.586;12.286;2022-07-29T06:19:39;102236.00;;;35.50
34807;BMP180;18310;55.586;12.286;2022-07-29T06:22:42;102233.00;;;35.50
34807;BMP180;18310;55.586;12.286;2022-07-29T06:25:47;102238.00;;;35.80
34807;BMP180;18310;55.586;12.286;2022-07-29T06:28:50;102241.00;;;35.90
34807;BMP180;18310;55.586;12.286;2022-07-29T06:31:53;102237.00;;;35.70
34807;BMP180;18310;55.586;12.286;2022-07-29T06:34:56;102245.00;;;35.50
34807;BMP180;18310;55.586;12.286;2022-07-29T06:38:19;102248.00;;;35.70
34807;BMP180;18310;55.586;12.286;2022-07-29T06:41:34;102245.00;;;36.00
34807;BMP180;18310;55.586;12.286;2022-07-29T06:44:38;102246.00;;;36.20
34807;BMP180;18310;55.586;12.286;2022-07-29T06:47:41;102252.00;;;36.50
34807;BMP180;18310;55.586;12.286;2022-07-29T06:50:44;102250.00;;;36.80
34807;BMP180;18310;55.586;12.286;2022-07-29T06:53:48;102252.00;;;36.90
34807;BMP180;18310;55.586;12.286;2022-07-29T06:57:05;102251.00;;;37.00
34807;BMP180;18310;55.586;12.286;2022-07-29T07:00:10;102256.00;;;37.10
34807;BMP180;18310;55.586;12.286;2022-07-29T07:03:13;102254.00;;;37.30
34807;BMP180;18310;55.586;12.286;2022-07-29T07:06:17;102256.00;;;37.40
34807;BMP180;18310;55.586;12.286;2022-07-29T07:09:20;102265.00;;;37.30
34807;BMP180;18310;55.586;12.286;2022-07-29T07:12:24;102265.00;;;36.70
34807;BMP180;18310;55.586;12.286;2022-07-29T07:15:28;102257.00;;;36.30
34807;BMP180;18310;55.586;12.286;2022-07-29T07:18:40;102259.00;;;35.90
34807;BMP180;18310;55.586;12.286;2022-07-29T07:21:43;102250.00;;;35.80
34807;BMP180;18310;55.586;12.286;2022-07-29T07:24:47;102252.00;;;35.70
34807;BMP180;18310;55.586;12.286;2022-07-29T07:27:52;102259.00;;;35.40
34807;BMP180;18310;55.586;12.286;2022-07-29T07:30:55;102256.00;;;35.20
34807;BMP180;18310;55.586;12.286;2022-07-29T07:33:58;102256.00;;;34.90
34807;BMP180;18310;55.586;12.286;2022-07-29T07:37:01;102269.00;;;34.20
34807;BMP180;18310;55.586;12.286;2022-07-29T07:40:06;102275.00;;;33.40
34807;BMP180;18310;55.586;12.286;2022-07-29T07:43:11;102277.00;;;32.60
34807;BMP180;18310;55.586;12.286;2022-07-29T07:46:14;102275.00;;;31.90
34807;BMP180;18310;55.586;12.286;2022-07-29T07:49:18;102273.00;;;31.40
34807;BMP180;18310;55.586;12.286;2022-07-29T07:52:22;102270.00;;;30.90
34807;BMP180;18310;55.586;12.286;2022-07-29T07:55:26;102266.00;;;30.50
34807;BMP180;18310;55.586;12.286;2022-07-29T07:58:30;102277.00;;;30.20
34807;BMP180;18310;55.586;12.286;2022-07-29T08:01:33;102271.00;;;29.90
34807;BMP180;18310;55.586;12.286;2022-07-29T08:04:56;102272.00;;;29.60
34807;BMP180;18310;55.586;12.286;2022-07-29T08:08:01;102272.00;;;29.40
34807;BMP180;18310;55.586;12.286;2022-07-29T08:11:04;102271.00;;;29.20
34807;BMP180;18310;55.586;12.286;2022-07-29T08:14:12;102265.00;;;29.10
34807;BMP180;18310;55.586;12.286;2022-07-29T08:17:16;102262.00;;;28.90
34807;BMP180;18310;55.586;12.286;2022-07-29T08:20:19;102263.00;;;28.90
34807;BMP180;18310;55.586;12.286;2022-07-29T08:23:22;102270.00;;;28.80
34807;BMP180;18310;55.586;12.286;2022-07-29T08:26:26;102279.00;;;28.70
34807;BMP180;18310;55.586;12.286;2022-07-29T08:29:30;102266.00;;;28.60
34807;BMP180;18310;55.586;12.286;2022-07-29T08:32:34;102272.00;;;28.50
34807;BMP180;18310;55.586;12.286;2022-07-29T08:35:54;102271.00;;;28.40
34807;BMP180;18310;55.586;12.286;2022-07-29T08:38:59;102267.00;;;28.30
34807;BMP180;18310;55.586;12.286;2022-07-29T08:42:03;102262.00;;;28.20
34807;BMP180;18310;55.586;12.286;2022-07-29T08:45:09;102271.00;;;28.20
34807;BMP180;18310;55.586;12.286;2022-07-29T08:48:14;102264.00;;;28.20
34807;BMP180;18310;55.586;12.286;2022-07-29T08:51:20;102264.00;;;28.20
34807;BMP180;18310;55.586;12.286;2022-07-29T08:54:24;102267.00;;;28.20
34807;BMP180;18310;55.586;12.286;2022-07-29T08:57:29;102270.00;;;28.20
34807;BMP180;18310;55.586;12.286;2022-07-29T09:00:41;102265.00;;;28.30
34807;BMP180;18310;55.586;12.286;2022-07-29T09:03:46;102269.00;;;28.40
34807;BMP180;18310;55.586;12.286;2022-07-29T09:06:54;102275.00;;;28.50
34807;BMP180;18310;55.586;12.286;2022-07-29T09:10:04;102276.00;;;28.50
34807;BMP180;18310;55.586;12.286;2022-07-29T09:13:07;102279.00;;;28.40
34807;BMP180;18310;55.586;12.286;2022-07-29T09:16:12;102291.00;;;28.40
34807;BMP180;18310;55.586;12.286;2022-07-29T09:19:37;102286.00;;;28.30
34807;BMP180;18310;55.586;12.286;2022-07-29T09:22:46;102281.00;;;28.20
34807;BMP180;18310;55.586;12.286;2022-07-29T09:25:51;102281.00;;;28.10
34807;BMP180;18310;55.586;12.286;2022-07-29T09:28:54;102291.00;;;28.10
34807;BMP180;18310;55.586;12.286;2022-07-29T09:31:59;102283.00;;;28.00
34807;BMP180;18310;55.586;12.286;2022-07-29T09:35:20;102291.00;;;28.10
34807;BMP180;18310;55.586;12.286;2022-07-29T09:38:24;102287.00;;;28.10
34807;BMP180;18310;55.586;12.286;2022-07-29T09:41:28;102285.00;;;28.10
34807;BMP180;18310;55.586;12.286;2022-07-29T09:44:43;102286.00;;;28.20
34807;BMP180;18310;55.586;12.286;2022-07-29T09:47:48;102284.00;;;28.20
34807;BMP180;18310;55.586;12.286;2022-07-29T09:50:52;102282.00;;;28.10
34807;BMP180;18310;55.586;12.286;2022-07-29T09:53:55;102285.00;;;28.10
34807;BMP180;18310;55.586;12.286;2022-07-29T09:56:59;102284.00;;;28.00
34807;BMP180;18310;55.586;12.286;2022-07-29T10:00:07;102280.00;;;28.00
34807;BMP180;18310;55.586;12.286;2022-07-29T10:03:13;102276.00;;;27.90
34807;BMP180;18310;55.586;12.286;2022-07-29T10:06:16;102279.00;;;27.70
34807;BMP180;18310;55.586;12.286;2022-07-29T10:09:19;102275.00;;;27.60
34807;BMP180;18310;55.586;12.286;2022-07-29T10:12:24;102265.00;;;27.60
34807;BMP180;18310;55.586;12.286;2022-07-29T10:15:30;102266.00;;;27.70
34807;BMP180;18310;55.586;12.286;2022-07-29T10:18:38;102274.00;;;27.60
34807;BMP180;18310;55.586;12.286;2022-07-29T10:21:42;102268.00;;;27.60
34807;BMP180;18310;55.586;12.286;2022-07-29T10:24:46;102262.00;;;27.50
34807;BMP180;18310;55.586;12.286;2022-07-29T10:27:50;102269.00;;;27.50
34807;BMP180;18310;55.586;12.286;2022-07-29T10:31:00;102266.00;;;27.50
34807;BMP180;18310;55.586;12.286;2022-07-29T10:34:17;102267.00;;;27.50
34807;BMP180;18310;55.586;12.286;2022-07-29T10:37:37;102271.00;;;27.50
34807;BMP180;18310;55.586;12.286;2022-07-29T10:41:00;102259.00;;;27.60
34807;BMP180;18310;55.586;12.286;2022-07-29T10:44:26;102266.00;;;27.80
34807;BMP180;18310;55.586;12.286;2022-07-29T10:47:30;102269.00;;;27.90
34807;BMP180;18310;55.586;12.286;2022-07-29T10:50:58;102263.00;;;27.90
34807;BMP180;18310;55.586;12.286;2022-07-29T10:54:04;102255.00;;;27.80
34807;BMP180;18310;55.586;12.286;2022-07-29T10:57:17;102253.00;;;27.80
34807;BMP180;18310;55.586;12.286;2022-07-29T11:00:32;102255.00;;;27.80
34807;BMP180;18310;55.586;12.286;2022-07-29T11:03:47;102258.00;;;27.90
34807;BMP180;18310;55.586;12.286;2022-07-29T11:07:09;102257.00;;;27.90
34807;BMP180;18310;55.586;12.286;2022-07-29T11:10:25;102259.00;;;27.90
34807;BMP180;18310;55.586;12.286;2022-07-29T11:13:50;102253.00;;;28.00
34807;BMP180;18310;55.586;12.286;2022-07-29T11:17:03;102256.00;;;28.10
34807;BMP180;18310;55.586;12.286;2022-07-29T11:20:37;102257.00;;;28.20
34807;BMP180;18310;55.586;12.286;2022-07-29T11:23:42;102251.00;;;28.20
34807;BMP180;18310;55.586;12.286;2022-07-29T11:27:07;102248.00;;;28.40
34807;BMP180;18310;55.586;12.286;2022-07-29T11:30:11;102263.00;;;28.40
34807;BMP180;18310;55.586;12.286;2022-07-29T11:33:35;102251.00;;;28.40
34807;BMP180;18310;55.586;12.286;2022-07-29T11:37:23;102250.00;;;28.50
34807;BMP180;18310;55.586;12.286;2022-07-29T11:41:24;102241.00;;;28.70
34807;BMP180;18310;55.586;12.286;2022-07-29T11:44:53;102256.00;;;28.70
34807;BMP180;18310;55.586;12.286;2022-07-29T11:47:59;102244.00;;;28.60
34807;BMP180;18310;55.586;12.286;2022-07-29T11:51:23;102244.00;;;28.50
34807;BMP180;18310;55.586;12.286;2022-07-29T11:54:34;102243.00;;;28.50
34807;BMP180;18310;55.586;12.286;2022-07-29T11:58:00;102236.00;;;28.50
34807;BMP180;18310;55.586;12.286;2022-07-29T12:01:05;102235.00;;;28.50
34807;BMP180;18310;55.586;12.286;2022-07-29T12:04:09;102237.00;;;28.50
34807;BMP180;18310;55.586;12.286;2022-07-29T12:07:14;102232.00;;;28.40
34807;BMP180;18310;55.586;12.286;2022-07-29T12:10:17;102241.00;;;28.50
34807;BMP180;18310;55.586;12.286;2022-07-29T12:13:39;102228.00;;;28.60
34807;BMP180;18310;55.586;12.286;2022-07-29T12:16:42;102234.00;;;28.60
34807;BMP180;18310;55.586;12.286;2022-07-29T12:19:46;102227.00;;;28.70
34807;BMP180;18310;55.586;12.286;2022-07-29T12:22:52;102232.00;;;28.70
34807;BMP180;18310;55.586;12.286;2022-07-29T12:25:58;102237.00;;;28.80
34807;BMP180;18310;55.586;12.286;2022-07-29T12:29:04;102228.00;;;28.80
34807;BMP180;18310;55.586;12.286;2022-07-29T12:32:16;102223.00;;;28.80
34807;BMP180;18310;55.586;12.286;2022-07-29T12:35:21;102225.00;;;28.80
34807;BMP180;18310;55.586;12.286;2022-07-29T12:38:25;102225.00;;;28.80
34807;BMP180;18310;55.586;12.286;2022-07-29T12:41:28;102226.00;;;28.80
34807;BMP180;18310;55.586;12.286;2022-07-29T12:44:50;102220.00;;;28.70
34807;BMP180;18310;55.586;12.286;2022-07-29T12:47:54;102228.00;;;28.70
34807;BMP180;18310;55.586;12.286;2022-07-29T12:50:59;102217.00;;;28.60
34807;BMP180;18310;55.586;12.286;2022-07-29T12:54:07;102214.00;;;28.60
34807;BMP180;18310;55.586;12.286;2022-07-29T12:57:12;102206.00;;;28.60
34807;BMP180;18310;55.586;12.286;2022-07-29T13:00:24;102216.00;;;28.70
34807;BMP180;18310;55.586;12.286;2022-07-29T13:03:27;102211.00;;;28.60
34807;BMP180;18310;55.586;12.286;2022-07-29T13:06:39;102215.00;;;28.60
34807;BMP180;18310;55.586;12.286;2022-07-29T13:09:47;102212.00;;;28.60
34807;BMP180;18310;55.586;12.286;2022-07-29T13:13:07;102211.00;;;28.60
34807;BMP180;18310;55.586;12.286;2022-07-29T13:16:12;102208.00;;;28.60
34807;BMP180;18310;55.586;12.286;2022-07-29T13:19:16;102207.00;;;28.60
34807;BMP180;18310;55.586;12.286;2022-07-29T13:22:22;102211.00;;;28.70
34807;BMP180;18310;55.586;12.286;2022-07-29T13:25:29;102201.00;;;28.60
34807;BMP180;18310;55.586;12.286;2022-07-29T13:28:33;102199.00;;;28.60
34807;BMP180;18310;55.586;12.286;2022-07-29T13:31:38;102201.00;;;28.60
34807;BMP180;18310;55.586;12.286;2022-07-29T13:34:41;102208.00;;;28.60
34807;BMP180;18310;55.586;12.286;2022-07-29T13:37:45;102209.00;;;28.50
34807;BMP180;18310;55.586;12.286;2022-07-29T13:40:48;102208.00;;;28.40
34807;BMP180;18310;55.586;12.286;2022-07-29T13:43:51;102209.00;;;28.30
34807;BMP180;18310;55.586;12.286;2022-07-29T13:46:56;102215.00;;;28.20
34807;BMP180;18310;55.586;12.286;2022-07-29T13:50:01;102215.00;;;28.20
34807;BMP180;18310;55.586;12.286;2022-07-29T13:53:06;102213.00;;;28.20
34807;BMP180;18310;55.586;12.286;2022-07-29T13:56:09;102205.00;;;28.20
34807;BMP180;18310;55.586;12.286;2022-07-29T13:59:12;102214.00;;;28.30
34807;BMP180;18310;55.586;12.286;2022-07-29T14:02:17;102203.00;;;28.30
34807;BMP180;18310;55.586;12.286;2022-07-29T14:05:20;102204.00;;;28.40
34807;BMP180;18310;55.586;12.286;2022-07-29T14:08:23;102202.00;;;28.40
34807;BMP180;18310;55.586;12.286;2022-07-29T14:11:27;102191.00;;;28.40
34807;BMP180;18310;55.586;12.286;2022-07-29T14:14:30;102187.00;;;28.40
34807;BMP180;18310;55.586;12.286;2022-07-29T14:17:35;102202.00;;;28.50
34807;BMP180;18310;55.586;12.286;2022-07-29T14:20:38;102200.00;;;28.50
34807;BMP180;18310;55.586;12.286;2022-07-29T14:23:43;102198.00;;;28.50
34807;BMP180;18310;55.586;12.286;2022-07-29T14:26:48;102191.00;;;28.40
34807;BMP180;18310;55.586;12.286;2022-07-29T14:29:51;102189.00;;;28.50
34807;BMP180;18310;55.586;12.286;2022-07-29T14:32:56;102191.00;;;28.50
34807;BMP180;18310;55.586;12.286;2022-07-29T14:35:59;102189.00;;;28.50
34807;BMP180;18310;55.586;12.286;2022-07-29T14:39:03;102188.00;;;28.50
34807;BMP180;18310;55.586;12.286;2022-07-29T14:42:06;102182.00;;;28.50
34807;BMP180;18310;55.586;12.286;2022-07-29T14:45:10;102179.00;;;28.50
34807;BMP180;18310;55.586;12.286;2022-07-29T14:48:14;102180.00;;;28.50
34807;BMP180;18310;55.586;12.286;2022-07-29T14:51:18;102190.00;;;28.50
34807;BMP180;18310;55.586;12.286;2022-07-29T14:54:21;102180.00;;;28.40
34807;BMP180;18310;55.586;12.286;2022-07-29T14:57:24;102180.00;;;28.40
34807;BMP180;18310;55.586;12.286;2022-07-29T15:00:28;102180.00;;;28.40
34807;BMP180;18310;55.586;12.286;2022-07-29T15:03:35;102178.00;;;28.40
34807;BMP180;18310;55.586;12.286;2022-07-29T15:06:38;102170.00;;;28.40
34807;BMP180;18310;55.586;12.286;2022-07-29T15:09:43;102169.00;;;28.40
34807;BMP180;18310;55.586;12.286;2022-07-29T15:12:51;102170.00;;;28.40
34807;BMP180;18310;55.586;12.286;2022-07-29T15:15:54;102166.00;;;28.40
34807;BMP180;18310;55.586;12.286;2022-07-29T15:19:02;102166.00;;;28.40
34807;BMP180;18310;55.586;12.286;2022-07-29T15:22:06;102167.00;;;28.40
34807;BMP180;18310;55.586;12.286;2022-07-29T15:25:09;102172.00;;;28.30
34807;BMP180;18310;55.586;12.286;2022-07-29T15:28:13;102171.00;;;28.30
34807;BMP180;18310;55.586;12.286;2022-07-29T15:31:16;102161.00;;;28.30
34807;BMP180;18310;55.586;12.286;2022-07-29T15:34:22;102159.00;;;28.20
34807;BMP180;18310;55.586;12.286;2022-07-29T15:37:26;102157.00;;;28.20
34807;BMP180;18310;55.586;12.286;2022-07-29T15:40:49;102158.00;;;28.20
34807;BMP180;18310;55.586;12.286;2022-07-29T15:43:53;102147.00;;;28.10
34807;BMP180;18310;55.586;12.286;2022-07-29T15:46:56;102142.00;;;28.10
34807;BMP180;18310;55.586;12.286;2022-07-29T15:50:08;102144.00;;;28.20
34807;BMP180;18310;55.586;12.286;2022-07-29T15:53:16;102137.00;;;28.10
34807;BMP180;18310;55.586;12.286;2022-07-29T15:56:20;102136.00;;;28.10
34807;BMP180;18310;55.586;12.286;2022-07-29T15:59:23;102135.00;;;28.10
34807;BMP180;18310;55.586;12.286;2022-07-29T16:02:27;102128.00;;;28.10
34807;BMP180;18310;55.586;12.286;2022-07-29T16:05:31;102130.00;;;28.10
34807;BMP180;18310;55.586;12.286;2022-07-29T16:08:35;102133.00;;;28.00
34807;BMP180;18310;55.586;12.286;2022-07-29T16:11:38;102128.00;;;28.00
34807;BMP180;18310;55.586;12.286;2022-07-29T16:14:42;102133.00;;;28.00
34807;BMP180;18310;55.586;12.286;2022-07-29T16:17:45;102136.00;;;27.90
34807;BMP180;18310;55.586;12.286;2022-07-29T16:20:50;102133.00;;;27.90
34807;BMP180;18310;55.586;12.286;2022-07-29T16:23:53;102134.00;;;27.80
34807;BMP180;18310;55.586;12.286;2022-07-29T16:26:56;102126.00;;;27.80
34807;BMP180;18310;55.586;12.286;2022-07-29T16:30:00;102127.00;;;27.80
34807;BMP180;18310;55.586;12.286;2022-07-29T16:33:03;102131.00;;;27.70
34807;BMP180;18310;55.586;12.286;2022-07-29T16:36:10;102133.00;;;27.70
34807;BMP180;18310;55.586;12.286;2022-07-29T16:39:19;102128.00;;;27.70
34807;BMP180;18310;55.586;12.286;2022-07-29T16:42:22;102116.00;;;27.60
34807;BMP180;18310;55.586;12.286;2022-07-29T16:45:45;102116.00;;;27.60
34807;BMP180;18310;55.586;12.286;2022-07-29T16:48:51;102126.00;;;27.60
34807;BMP180;18310;55.586;12.286;2022-07-29T16:51:56;102114.00;;;27.60
34807;BMP180;18310;55.586;12.286;2022-07-29T16:55:00;102119.00;;;27.60
34807;BMP180;18310;55.586;12.286;2022-07-29T16:58:03;102115.00;;;27.60
34807;BMP180;18310;55.586;12.286;2022-07-29T17:01:07;102117.00;;;27.50
34807;BMP180;18310;55.586;12.286;2022-07-29T17:04:10;102108.00;;;27.40
34807;BMP180;18310;55.586;12.286;2022-07-29T17:07:17;102112.00;;;27.40
34807;BMP180;18310;55.586;12.286;2022-07-29T17:10:21;102109.00;;;27.40
34807;BMP180;18310;55.586;12.286;2022-07-29T17:13:28;102105.00;;;27.30
34807;BMP180;18310;55.586;12.286;2022-07-29T17:16:31;102102.00;;;27.20
34807;BMP180;18310;55.586;12.286;2022-07-29T17:19:35;102112.00;;;27.20
34807;BMP180;18310;55.586;12.286;2022-07-29T17:22:40;102107.00;;;27.20
34807;BMP180;18310;55.586;12.286;2022-07-29T17:25:43;102114.00;;;27.20